sensor_id;sensor_type;location;lat;lon;timestamp;pressure;altitude;pressure_sealevel;temperature;humidity
1776;BME280;885;42.626;23.200;2022-07-29T00:01:37;169837.59;;;17.16;100.00
1776;BME280;885;42.626;23.200;2022-07-29T00:04:05;169836.19;;;17.16;100.00
1776;BME280;885;42.626;23.200;2022-07-29T00:06:32;169859.75;;;17.24;100.00
1776;BME280;885;42.626;23.200;2022-07-29T00:08:59;169876.38;;;17.30;100.00
1776;BME280;885;42.626;23.200;2022-07-29T00:11:26;169887.47;;;17.34;100.00
1776;BME280;885;42.626;23.200;2022-07-29T00:13:53;169845.94;;;17.19;100.00
1776;BME280;885;42.626;23.200;2022-07-29T00:16:20;169859.75;;;17.24;100.00
1776;BME280;885;42.626;23.200;2022-07-29T00:18:46;169794.66;;;17.01;100.00
1776;BME280;885;42.626;23.200;2022-07-29T00:21:15;169834.84;;;17.15;100.00
1776;BME280;885;42.626;23.200;2022-07-29T00:23:41;169840.38;;;17.17;100.00
1776;BME280;885;42.626;23.200;2022-07-29T00:26:08;169818.16;;;17.09;100.00
1776;BME280;885;42.626;23.200;2022-07-29T00:28:35;169819.56;;;17.10;100.00
1776;BME280;885;42.626;23.200;2022-07-29T00:31:02;169861.16;;;17.25;100.00
1776;BME280;885;42.626;23.200;2022-07-29T00:33:29;169791.88;;;17.00;100.00
1776;BME280;885;42.626;23.200;2022-07-29T00:35:56;169748.88;;;16.84;100.00
1776;BME280;885;42.626;23.200;2022-07-29T00:38:23;169757.22;;;16.87;100.00
1776;BME280;885;42.626;23.200;2022-07-29T00:40:50;169771.09;;;16.92;100.00
1776;BME280;885;42.626;23.200;2022-07-29T00:43:17;169793.25;;;17.00;100.00
1776;BME280;885;42.626;23.200;2022-07-29T00:45:44;169808.50;;;17.06;100.00
1776;BME280;885;42.626;23.200;2022-07-29T00:48:11;169787.72;;;16.98;100.00
1776;BME280;885;42.626;23.200;2022-07-29T00:50:38;169815.44;;;17.08;100.00
1776;BME280;885;42.626;23.200;2022-07-29T00:53:06;169776.66;;;16.94;100.00
1776;BME280;885;42.626;23.200;2022-07-29T00:55:34;169793.25;;;17.00;100.00
1776;BME280;885;42.626;23.200;2022-07-29T00:58:02;169837.59;;;17.16;100.00
1776;BME280;885;42.626;23.200;2022-07-29T01:00:29;169809.88;;;17.06;100.00
1776;BME280;885;42.626;23.200;2022-07-29T01:02:56;169764.16;;;16.90;100.00
1776;BME280;885;42.626;23.200;2022-07-29T01:05:24;169737.81;;;16.80;100.00
1776;BME280;885;42.626;23.200;2022-07-29T01:07:53;169729.53;;;16.77;100.00
1776;BME280;885;42.626;23.200;2022-07-29T01:10:21;169755.84;;;16.87;100.00
1776;BME280;885;42.626;23.200;2022-07-29T01:12:52;169754.44;;;16.86;100.00
1776;BME280;885;42.626;23.200;2022-07-29T01:15:20;169764.16;;;16.90;100.00
1776;BME280;885;42.626;23.200;2022-07-29T01:17:53;169740.59;;;16.81;100.00
1776;BME280;885;42.626;23.200;2022-07-29T01:20:26;169714.25;;;16.72;100.00
1776;BME280;885;42.626;23.200;2022-07-29T01:23:21;169754.44;;;16.86;100.00
1776;BME280;885;42.626;23.200;2022-07-29T01:26:04;169755.84;;;16.87;100.00
1776;BME280;885;42.626;23.200;2022-07-29T01:29:04;169765.56;;;16.90;100.00
1776;BME280;885;42.626;23.200;2022-07-29T01:31:35;169784.94;;;16.97;100.00
1776;BME280;885;42.626;23.200;2022-07-29T01:34:07;169710.13;;;16.70;100.00
1776;BME280;885;42.626;23.200;2022-07-29T01:36:37;169733.66;;;16.79;100.00
1776;BME280;885;42.626;23.200;2022-07-29T01:39:10;169760.03;;;16.88;100.00
1776;BME280;885;42.626;23.200;2022-07-29T01:41:42;169784.94;;;16.97;100.00
1776;BME280;885;42.626;23.200;2022-07-29T01:44:16;169783.53;;;16.97;100.00
1776;BME280;885;42.626;23.200;2022-07-29T01:46:50;169760.03;;;16.88;100.00
1776;BME280;885;42.626;23.200;2022-07-29T01:49:21;169791.88;;;17.00;100.00
1776;BME280;885;42.626;23.200;2022-07-29T01:51:52;169787.72;;;16.98;100.00
1776;BME280;885;42.626;23.200;2022-07-29T01:54:26;169772.44;;;16.93;100.00
1776;BME280;885;42.626;23.200;2022-07-29T01:56:56;169760.03;;;16.88;100.00
1776;BME280;885;42.626;23.200;2022-07-29T01:59:26;169783.53;;;16.97;100.00
1776;BME280;885;42.626;23.200;2022-07-29T02:01:57;169753.09;;;16.86;100.00
1776;BME280;885;42.626;23.200;2022-07-29T02:04:25;169779.38;;;16.95;100.00
1776;BME280;885;42.626;23.200;2022-07-29T02:06:58;169765.56;;;16.90;100.00
1776;BME280;885;42.626;23.200;2022-07-29T02:09:25;169746.16;;;16.83;100.00
1776;BME280;885;42.626;23.200;2022-07-29T02:11:54;169683.81;;;16.60;100.00
1776;BME280;885;42.626;23.200;2022-07-29T02:14:22;169710.13;;;16.70;100.00
1776;BME280;885;42.626;23.200;2022-07-29T02:16:52;169762.78;;;16.89;100.00
1776;BME280;885;42.626;23.200;2022-07-29T02:19:21;169757.22;;;16.87;100.00
1776;BME280;885;42.626;23.200;2022-07-29T02:21:51;169819.56;;;17.10;100.00
1776;BME280;885;42.626;23.200;2022-07-29T02:24:21;169815.44;;;17.08;100.00
1776;BME280;885;42.626;23.200;2022-07-29T02:26:50;169823.72;;;17.11;100.00
1776;BME280;885;42.626;23.200;2022-07-29T02:29:20;169809.88;;;17.06;100.00
1776;BME280;885;42.626;23.200;2022-07-29T02:31:50;169800.22;;;17.03;100.00
1776;BME280;885;42.626;23.200;2022-07-29T02:34:18;169776.66;;;16.94;100.00
1776;BME280;885;42.626;23.200;2022-07-29T02:36:46;169765.56;;;16.90;100.00
1776;BME280;885;42.626;23.200;2022-07-29T02:39:15;169732.28;;;16.78;100.00
1776;BME280;885;42.626;23.200;2022-07-29T02:41:45;169750.28;;;16.85;100.00
1776;BME280;885;42.626;23.200;2022-07-29T02:44:15;169773.84;;;16.93;100.00
1776;BME280;885;42.626;23.200;2022-07-29T02:46:46;169753.09;;;16.86;100.00
1776;BME280;885;42.626;23.200;2022-07-29T02:49:20;169753.09;;;16.86;100.00
1776;BME280;885;42.626;23.200;2022-07-29T02:51:53;169771.09;;;16.92;100.00
1776;BME280;885;42.626;23.200;2022-07-29T02:54:27;169790.47;;;16.99;100.00
1776;BME280;885;42.626;23.200;2022-07-29T02:56:59;169784.94;;;16.97;100.00
1776;BME280;885;42.626;23.200;2022-07-29T02:59:27;169783.53;;;16.97;100.00
1776;BME280;885;42.626;23.200;2022-07-29T03:01:58;169768.31;;;16.91;100.00
1776;BME280;885;42.626;23.200;2022-07-29T03:04:27;169772.44;;;16.93;100.00
1776;BME280;885;42.626;23.200;2022-07-29T03:06:58;169779.38;;;16.95;100.00
1776;BME280;885;42.626;23.200;2022-07-29T03:09:25;169791.88;;;17.00;100.00
1776;BME280;885;42.626;23.200;2022-07-29T03:11:52;169793.25;;;17.00;100.00
1776;BME280;885;42.626;23.200;2022-07-29T03:14:20;169783.53;;;16.97;100.00
1776;BME280;885;42.626;23.200;2022-07-29T03:16:49;169758.63;;;16.88;100.00
1776;BME280;885;42.626;23.200;2022-07-29T03:19:16;169760.03;;;16.88;100.00
1776;BME280;885;42.626;23.200;2022-07-29T03:21:45;169750.28;;;16.85;100.00
1776;BME280;885;42.626;23.200;2022-07-29T03:24:24;169712.91;;;16.71;100.00
1776;BME280;885;42.626;23.200;2022-07-29T03:26:51;169685.16;;;16.61;100.00
1776;BME280;885;42.626;23.200;2022-07-29T03:29:18;169649.13;;;16.48;100.00
1776;BME280;885;42.626;23.200;2022-07-29T03:31:45;169665.81;;;16.54;100.00
1776;BME280;885;42.626;23.200;2022-07-29T03:34:12;169577.09;;;16.22;100.00
1776;BME280;885;42.626;23.200;2022-07-29T03:36:39;169585.41;;;16.25;100.00
1776;BME280;885;42.626;23.200;2022-07-29T03:39:09;169588.16;;;16.26;100.00
1776;BME280;885;42.626;23.200;2022-07-29T03:41:38;169621.44;;;16.38;100.00
1776;BME280;885;42.626;23.200;2022-07-29T03:44:07;169654.72;;;16.50;100.00
1776;BME280;885;42.626;23.200;2022-07-29T03:46:35;169663.00;;;16.53;100.00
1776;BME280;885;42.626;23.200;2022-07-29T03:49:04;169603.44;;;16.31;100.00
1776;BME280;885;42.626;23.200;2022-07-29T03:51:33;169631.13;;;16.41;100.00
1776;BME280;885;42.626;23.200;2022-07-29T03:54:01;169658.88;;;16.51;100.00
1776;BME280;885;42.626;23.200;2022-07-29T03:56:32;169687.97;;;16.62;100.00
1776;BME280;885;42.626;23.200;2022-07-29T03:59:02;169701.84;;;16.67;100.00
1776;BME280;885;42.626;23.200;2022-07-29T04:01:29;169701.84;;;16.67;100.00
1776;BME280;885;42.626;23.200;2022-07-29T04:03:59;169711.50;;;16.71;100.00
1776;BME280;885;42.626;23.200;2022-07-29T04:06:27;169725.38;;;16.76;100.00
1776;BME280;885;42.626;23.200;2022-07-29T04:08:54;169743.34;;;16.82;100.00
1776;BME280;885;42.626;23.200;2022-07-29T04:11:20;169754.44;;;16.86;100.00
1776;BME280;885;42.626;23.200;2022-07-29T04:13:49;169762.78;;;16.89;100.00
1776;BME280;885;42.626;23.200;2022-07-29T04:16:15;169779.38;;;16.95;100.00
1776;BME280;885;42.626;23.200;2022-07-29T04:18:42;169755.84;;;16.87;100.00
1776;BME280;885;42.626;23.200;2022-07-29T04:21:09;169730.94;;;16.78;100.00
1776;BME280;885;42.626;23.200;2022-07-29T04:23:36;169755.84;;;16.87;100.00
1776;BME280;885;42.626;23.200;2022-07-29T04:26:03;169782.19;;;16.96;100.00
1776;BME280;885;42.626;23.200;2022-07-29T04:28:29;169779.38;;;16.95;100.00
1776;BME280;885;42.626;23.200;2022-07-29T04:30:57;169773.84;;;16.93;100.00
1776;BME280;885;42.626;23.200;2022-07-29T04:33:24;169784.94;;;16.97;100.00
1776;BME280;885;42.626;23.200;2022-07-29T04:35:51;169791.88;;;17.00;100.00
1776;BME280;885;42.626;23.200;2022-07-29T04:38:18;169801.56;;;17.03;100.00
1776;BME280;885;42.626;23.200;2022-07-29T04:40:44;169807.09;;;17.05;100.00
1776;BME280;885;42.626;23.200;2022-07-29T04:43:11;169796.00;;;17.01;100.00
1776;BME280;885;42.626;23.200;2022-07-29T04:45:38;169790.47;;;16.99;100.00
1776;BME280;885;42.626;23.200;2022-07-29T04:48:06;169789.06;;;16.99;100.00
1776;BME280;885;42.626;23.200;2022-07-29T04:50:33;169818.16;;;17.09;100.00
1776;BME280;885;42.626;23.200;2022-07-29T04:53:00;169850.06;;;17.21;100.00
1776;BME280;885;42.626;23.200;2022-07-29T04:55:27;169852.81;;;17.22;100.00
1776;BME280;885;42.626;23.200;2022-07-29T04:57:54;169848.69;;;17.20;100.00
1776;BME280;885;42.626;23.200;2022-07-29T05:00:20;169823.72;;;17.11;100.00
1776;BME280;885;42.626;23.200;2022-07-29T05:02:48;169801.56;;;17.03;100.00
1776;BME280;885;42.626;23.200;2022-07-29T05:05:16;169832.06;;;17.14;100.00
1776;BME280;885;42.626;23.200;2022-07-29T05:07:43;169848.69;;;17.20;100.00
1776;BME280;885;42.626;23.200;2022-07-29T05:10:10;169869.50;;;17.28;100.00
1776;BME280;885;42.626;23.200;2022-07-29T05:12:37;169861.16;;;17.25;100.00
1776;BME280;885;42.626;23.200;2022-07-29T05:15:05;169883.31;;;17.33;100.00
1776;BME280;885;42.626;23.200;2022-07-29T05:17:32;169915.22;;;17.44;100.00
1776;BME280;885;42.626;23.200;2022-07-29T05:19:59;169938.84;;;17.53;100.00
1776;BME280;885;42.626;23.200;2022-07-29T05:22:27;169934.66;;;17.52;100.00
1776;BME280;885;42.626;23.200;2022-07-29T05:24:53;169937.44;;;17.53;100.00
1776;BME280;885;42.626;23.200;2022-07-29T05:27:20;169948.53;;;17.57;100.00
1776;BME280;885;42.626;23.200;2022-07-29T05:29:47;169967.91;;;17.64;100.00
1776;BME280;885;42.626;23.200;2022-07-29T05:32:14;169995.69;;;17.74;100.00
1776;BME280;885;42.626;23.200;2022-07-29T05:34:41;170030.34;;;17.86;100.00
1776;BME280;885;42.626;23.200;2022-07-29T05:37:08;170028.94;;;17.86;100.00
1776;BME280;885;42.626;23.200;2022-07-29T05:39:36;170006.78;;;17.78;100.00
1776;BME280;885;42.626;23.200;2022-07-29T05:42:04;170088.59;;;18.07;100.00
1776;BME280;885;42.626;23.200;2022-07-29T05:44:36;170138.50;;;18.25;100.00
1776;BME280;885;42.626;23.200;2022-07-29T05:47:03;170148.19;;;18.29;100.00
1776;BME280;885;42.626;23.200;2022-07-29T05:49:30;170192.66;;;18.45;100.00
1776;BME280;885;42.626;23.200;2022-07-29T05:51:57;170231.47;;;18.59;100.00
1776;BME280;885;42.626;23.200;2022-07-29T05:54:23;170262.00;;;18.70;100.00
1776;BME280;885;42.626;23.200;2022-07-29T05:56:52;170359.13;;;19.06;100.00
1776;BME280;885;42.626;23.200;2022-07-29T05:59:20;170439.66;;;19.35;100.00
1776;BME280;885;42.626;23.200;2022-07-29T06:01:47;170668.69;;;20.18;100.00
1776;BME280;885;42.626;23.200;2022-07-29T06:04:13;170950.78;;;21.20;100.00
1776;BME280;885;42.626;23.200;2022-07-29T06:06:40;171088.41;;;21.70;100.00
1776;BME280;885;42.626;23.200;2022-07-29T06:09:07;171262.25;;;22.33;100.00
1776;BME280;885;42.626;23.200;2022-07-29T06:11:37;171349.88;;;22.64;99.68
1776;BME280;885;42.626;23.200;2022-07-29T06:14:05;171328.97;;;22.57;97.70
1776;BME280;885;42.626;23.200;2022-07-29T06:16:32;171252.31;;;22.30;97.80
1776;BME280;885;42.626;23.200;2022-07-29T06:18:59;171159.16;;;21.96;100.00
1776;BME280;885;42.626;23.200;2022-07-29T06:21:25;171096.56;;;21.74;100.00
1776;BME280;885;42.626;23.200;2022-07-29T06:23:52;171056.25;;;21.59;100.00
1776;BME280;885;42.626;23.200;2022-07-29T06:26:19;171164.88;;;21.97;100.00
1776;BME280;885;42.626;23.200;2022-07-29T06:28:46;171377.72;;;22.74;100.00
1776;BME280;885;42.626;23.200;2022-07-29T06:31:14;171596.19;;;23.53;96.90
1776;BME280;885;42.626;23.200;2022-07-29T06:33:41;171785.53;;;24.22;93.43
1776;BME280;885;42.626;23.200;2022-07-29T06:36:08;171850.78;;;24.46;92.13
1776;BME280;885;42.626;23.200;2022-07-29T06:38:35;171803.47;;;24.29;91.50
1776;BME280;885;42.626;23.200;2022-07-29T06:41:03;171760.31;;;24.14;92.59
1776;BME280;885;42.626;23.200;2022-07-29T06:43:32;171782.56;;;24.22;93.29
1776;BME280;885;42.626;23.200;2022-07-29T06:46:02;171458.41;;;24.42;91.54
1776;BME280;885;42.626;23.200;2022-07-29T06:48:31;171559.84;;;24.79;88.30
1776;BME280;885;42.626;23.200;2022-07-29T06:50:59;171630.75;;;25.04;87.02
1776;BME280;885;42.626;23.200;2022-07-29T06:53:27;171111.81;;;24.54;88.60
1776;BME280;885;42.626;23.200;2022-07-29T06:55:54;170646.19;;;24.23;90.43
1776;BME280;885;42.626;23.200;2022-07-29T06:58:23;170548.00;;;23.87;90.89
1776;BME280;885;42.626;23.200;2022-07-29T07:00:51;170513.44;;;23.75;92.29
1776;BME280;885;42.626;23.200;2022-07-29T07:03:18;170044.41;;;23.42;94.58
1776;BME280;885;42.626;23.200;2022-07-29T07:05:46;169967.19;;;23.14;96.92
1776;BME280;885;42.626;23.200;2022-07-29T07:08:13;169927.22;;;22.99;97.79
1776;BME280;885;42.626;23.200;2022-07-29T07:10:43;170246.69;;;22.77;100.00
1776;BME280;885;42.626;23.200;2022-07-29T07:13:10;170270.16;;;22.86;99.69
1776;BME280;885;42.626;23.200;2022-07-29T07:15:37;169895.50;;;22.87;97.27
1776;BME280;885;42.626;23.200;2022-07-29T07:18:05;170355.81;;;23.17;98.03
1776;BME280;885;42.626;23.200;2022-07-29T07:20:32;169971.31;;;23.15;95.56
1776;BME280;885;42.626;23.200;2022-07-29T07:23:00;169960.28;;;23.11;96.73
1776;BME280;885;42.626;23.200;2022-07-29T07:25:27;169965.81;;;23.13;96.40
1776;BME280;885;42.626;23.200;2022-07-29T07:27:54;169907.91;;;22.92;96.97
1776;BME280;885;42.626;23.200;2022-07-29T07:30:20;169943.75;;;23.05;96.23
1776;BME280;885;42.626;23.200;2022-07-29T07:32:47;169942.38;;;23.05;97.23
1776;BME280;885;42.626;23.200;2022-07-29T07:35:14;169942.38;;;23.05;98.01
1776;BME280;885;42.626;23.200;2022-07-29T07:37:41;169968.59;;;23.14;95.84
1776;BME280;885;42.626;23.200;2022-07-29T07:40:11;169974.09;;;23.16;96.70
1776;BME280;885;42.626;23.200;2022-07-29T07:42:38;170383.44;;;23.27;98.23
1776;BME280;885;42.626;23.200;2022-07-29T07:45:05;170018.25;;;23.32;96.07
1776;BME280;885;42.626;23.200;2022-07-29T07:47:34;170045.81;;;23.42;94.81
1776;BME280;885;42.626;23.200;2022-07-29T07:50:02;170063.75;;;23.49;95.07
1776;BME280;885;42.626;23.200;2022-07-29T07:52:29;170061.00;;;23.48;95.15
1776;BME280;885;42.626;23.200;2022-07-29T07:54:56;170091.31;;;23.59;94.69
1776;BME280;885;42.626;23.200;2022-07-29T07:57:24;170069.25;;;23.51;95.21
1776;BME280;885;42.626;23.200;2022-07-29T07:59:51;170178.19;;;23.91;92.27
1776;BME280;885;42.626;23.200;2022-07-29T08:02:17;170169.94;;;23.88;93.71
1776;BME280;885;42.626;23.200;2022-07-29T08:04:44;170214.13;;;24.04;92.79
1776;BME280;885;42.626;23.200;2022-07-29T08:07:11;170196.13;;;23.97;93.31
1776;BME280;885;42.626;23.200;2022-07-29T08:09:39;170640.66;;;24.21;94.60
1776;BME280;885;42.626;23.200;2022-07-29T08:12:06;170636.47;;;24.19;93.05
1776;BME280;885;42.626;23.200;2022-07-29T08:14:35;170701.50;;;24.43;92.38
1776;BME280;885;42.626;23.200;2022-07-29T08:17:02;170669.72;;;24.31;92.16
1776;BME280;885;42.626;23.200;2022-07-29T08:19:29;170305.16;;;24.37;91.74
1776;BME280;885;42.626;23.200;2022-07-29T08:21:55;170719.47;;;24.50;91.14
1776;BME280;885;42.626;23.200;2022-07-29T08:24:22;170748.50;;;24.60;91.26
1776;BME280;885;42.626;23.200;2022-07-29T08:27:06;170848.16;;;24.96;89.07
1776;BME280;885;42.626;23.200;2022-07-29T08:29:35;170831.56;;;24.90;90.03
1776;BME280;885;42.626;23.200;2022-07-29T08:32:02;170399.00;;;24.71;89.50
1776;BME280;885;42.626;23.200;2022-07-29T08:34:29;170831.56;;;24.90;89.82
1776;BME280;885;42.626;23.200;2022-07-29T08:36:56;170487.34;;;25.03;86.98
1776;BME280;885;42.626;23.200;2022-07-29T08:39:23;170903.47;;;25.16;88.97
1776;BME280;885;42.626;23.200;2022-07-29T08:41:50;170498.38;;;25.07;87.72
1776;BME280;885;42.626;23.200;2022-07-29T08:44:17;170514.97;;;25.13;87.04
1776;BME280;885;42.626;23.200;2022-07-29T08:46:45;170566.03;;;25.32;85.31
1776;BME280;885;42.626;23.200;2022-07-29T08:49:12;170636.44;;;25.58;81.81
1776;BME280;885;42.626;23.200;2022-07-29T08:51:40;170713.78;;;25.86;83.13
1776;BME280;885;42.626;23.200;2022-07-29T08:54:08;171177.59;;;26.16;83.29
1776;BME280;885;42.626;23.200;2022-07-29T08:56:35;170691.72;;;25.78;84.91
1776;BME280;885;42.626;23.200;2022-07-29T08:59:03;170313.84;;;25.79;81.40
1776;BME280;885;42.626;23.200;2022-07-29T09:01:33;170740.00;;;25.95;81.76
1776;BME280;885;42.626;23.200;2022-07-29T09:04:04;170865.78;;;26.41;81.44
1776;BME280;885;42.626;23.200;2022-07-29T09:06:32;170959.72;;;26.75;78.50
1776;BME280;885;42.626;23.200;2022-07-29T09:09:01;171413.03;;;27.02;77.70
1776;BME280;885;42.626;23.200;2022-07-29T09:11:29;170595.03;;;26.82;70.68
1776;BME280;885;42.626;23.200;2022-07-29T09:13:56;171084.13;;;27.21;69.50
1776;BME280;885;42.626;23.200;2022-07-29T09:16:23;170655.72;;;27.04;69.68
1776;BME280;885;42.626;23.200;2022-07-29T09:18:49;170625.38;;;26.93;71.72
1776;BME280;885;42.626;23.200;2022-07-29T09:21:18;170608.84;;;26.87;70.20
1776;BME280;885;42.626;23.200;2022-07-29T09:24:05;170227.59;;;26.87;70.15
1776;BME280;885;42.626;23.200;2022-07-29T09:26:34;170738.41;;;27.34;68.21
1776;BME280;885;42.626;23.200;2022-07-29T09:29:08;170768.81;;;27.45;68.69
1776;BME280;885;42.626;23.200;2022-07-29T09:31:37;170779.84;;;27.49;68.86
1776;BME280;885;42.626;23.200;2022-07-29T09:34:05;170832.25;;;27.68;66.93
1776;BME280;885;42.626;23.200;2022-07-29T09:36:39;170859.81;;;27.78;68.31
1776;BME280;885;42.626;23.200;2022-07-29T09:39:06;170416.06;;;27.56;66.54
1776;BME280;885;42.626;23.200;2022-07-29T09:41:44;170475.25;;;27.77;64.03
1776;BME280;885;42.626;23.200;2022-07-29T09:44:11;170038.50;;;27.57;65.42
1776;BME280;885;42.626;23.200;2022-07-29T09:46:40;170030.31;;;27.54;64.42
1776;BME280;885;42.626;23.200;2022-07-29T09:49:09;169665.13;;;27.60;63.87
1776;BME280;885;42.626;23.200;2022-07-29T09:51:38;169666.50;;;27.61;63.85
1776;BME280;885;42.626;23.200;2022-07-29T09:54:23;170093.44;;;27.77;64.13
1776;BME280;885;42.626;23.200;2022-07-29T09:56:51;169272.56;;;27.56;62.28
1776;BME280;885;42.626;23.200;2022-07-29T09:59:17;169299.88;;;27.66;62.50
1776;BME280;885;42.626;23.200;2022-07-29T10:01:45;169780.22;;;28.02;62.61
1776;BME280;885;42.626;23.200;2022-07-29T10:04:13;169811.69;;;28.14;61.25
1776;BME280;885;42.626;23.200;2022-07-29T10:06:59;169821.28;;;28.17;61.16
1776;BME280;885;42.626;23.200;2022-07-29T10:09:27;169804.84;;;28.11;63.81
1776;BME280;885;42.626;23.200;2022-07-29T10:12:05;169851.41;;;28.28;59.94
1776;BME280;885;42.626;23.200;2022-07-29T10:14:32;169914.44;;;28.52;58.80
1776;BME280;885;42.626;23.200;2022-07-29T10:17:00;169548.69;;;28.58;58.14
1776;BME280;885;42.626;23.200;2022-07-29T10:19:28;169606.13;;;28.79;56.97
1776;BME280;885;42.626;23.200;2022-07-29T10:21:56;169264.69;;;28.94;54.92
1776;BME280;885;42.626;23.200;2022-07-29T10:24:26;169677.25;;;29.05;57.03
1776;BME280;885;42.626;23.200;2022-07-29T10:26:54;170113.25;;;29.25;57.83
1776;BME280;885;42.626;23.200;2022-07-29T10:29:22;170170.84;;;29.46;56.77
1776;BME280;885;42.626;23.200;2022-07-29T10:31:56;170211.97;;;29.61;55.34
1776;BME280;885;42.626;23.200;2022-07-29T10:34:43;170264.13;;;29.80;56.00
1776;BME280;885;42.626;23.200;2022-07-29T10:37:17;169766.16;;;29.38;56.70
1776;BME280;885;42.626;23.200;2022-07-29T10:39:54;169354.78;;;29.27;55.65
1776;BME280;885;42.626;23.200;2022-07-29T10:42:24;169405.25;;;29.46;54.09
1776;BME280;885;42.626;23.200;2022-07-29T10:44:52;169455.75;;;29.64;54.25
1776;BME280;885;42.626;23.200;2022-07-29T10:47:21;169010.25;;;29.41;54.74
1776;BME280;885;42.626;23.200;2022-07-29T10:49:58;169513.13;;;29.86;54.87
1776;BME280;885;42.626;23.200;2022-07-29T10:52:52;169500.81;;;29.81;55.03
1776;BME280;885;42.626;23.200;2022-07-29T10:55:33;169961.84;;;30.10;53.93
1776;BME280;885;42.626;23.200;2022-07-29T10:58:20;170012.44;;;30.28;54.17
1776;BME280;885;42.626;23.200;2022-07-29T11:00:49;170005.59;;;30.26;54.01
1776;BME280;885;42.626;23.200;2022-07-29T11:03:45;170095.97;;;30.59;53.36
1776;BME280;885;42.626;23.200;2022-07-29T11:06:12;169611.41;;;30.22;54.84
1776;BME280;885;42.626;23.200;2022-07-29T11:08:39;168734.94;;;29.81;53.07
1776;BME280;885;42.626;23.200;2022-07-29T11:11:38;169629.16;;;30.28;54.85
1776;BME280;885;42.626;23.200;2022-07-29T11:14:07;170102.81;;;30.62;54.29
1776;BME280;885;42.626;23.200;2022-07-29T11:16:58;170139.72;;;30.75;53.49
1776;BME280;885;42.626;23.200;2022-07-29T11:19:27;170204.13;;;30.99;51.89
1776;BME280;885;42.626;23.200;2022-07-29T11:21:54;170645.53;;;31.20;52.09
1776;BME280;885;42.626;23.200;2022-07-29T11:24:22;170287.63;;;31.29;51.09
1776;BME280;885;42.626;23.200;2022-07-29T11:27:24;170310.91;;;31.38;50.43
1776;BME280;885;42.626;23.200;2022-07-29T11:30:05;170337.00;;;31.48;50.71
1776;BME280;885;42.626;23.200;2022-07-29T11:32:36;170356.13;;;31.55;49.98
1776;BME280;885;42.626;23.200;2022-07-29T11:35:12;169933.81;;;31.41;49.97
1776;BME280;885;42.626;23.200;2022-07-29T11:37:39;170350.66;;;31.53;51.42
1776;BME280;885;42.626;23.200;2022-07-29T11:40:14;169495.28;;;31.20;49.96
1776;BME280;885;42.626;23.200;2022-07-29T11:42:44;169024.47;;;30.88;50.64
1776;BME280;885;42.626;23.200;2022-07-29T11:45:14;168111.22;;;30.34;51.62
1776;BME280;885;42.626;23.200;2022-07-29T11:47:49;167683.50;;;30.17;52.10
1776;BME280;885;42.626;23.200;2022-07-29T11:50:17;167595.84;;;29.85;53.59
1776;BME280;885;42.626;23.200;2022-07-29T11:52:52;167108.00;;;29.45;55.67
1776;BME280;885;42.626;23.200;2022-07-29T11:55:21;167518.88;;;29.56;57.58
1776;BME280;885;42.626;23.200;2022-07-29T11:57:51;167975.97;;;29.83;55.67
1776;BME280;885;42.626;23.200;2022-07-29T12:00:27;167617.44;;;29.93;54.57
1776;BME280;885;42.626;23.200;2022-07-29T12:02:55;168089.56;;;30.26;53.58
1776;BME280;885;42.626;23.200;2022-07-29T12:05:31;168119.38;;;30.37;53.72
1776;BME280;885;42.626;23.200;2022-07-29T12:08:05;168581.22;;;30.66;52.87
1776;BME280;885;42.626;23.200;2022-07-29T12:10:32;169058.44;;;31.01;51.78
1776;BME280;885;42.626;23.200;2022-07-29T12:13:00;169093.78;;;31.14;51.83
1776;BME280;885;42.626;23.200;2022-07-29T12:15:27;169526.59;;;31.32;51.15
1776;BME280;885;42.626;23.200;2022-07-29T12:17:54;169623.41;;;31.68;49.94
1776;BME280;885;42.626;23.200;2022-07-29T12:20:25;169290.97;;;31.87;46.64
1776;BME280;885;42.626;23.200;2022-07-29T12:22:52;169293.72;;;31.88;48.19
1776;BME280;885;42.626;23.200;2022-07-29T12:25:21;169680.66;;;31.89;49.95
1776;BME280;885;42.626;23.200;2022-07-29T12:27:57;169293.72;;;31.88;48.39
1776;BME280;885;42.626;23.200;2022-07-29T12:30:37;168783.34;;;31.41;50.05
1776;BME280;885;42.626;23.200;2022-07-29T12:33:17;167930.53;;;31.09;47.87
1776;BME280;885;42.626;23.200;2022-07-29T12:35:46;168396.75;;;31.40;49.23
1776;BME280;885;42.626;23.200;2022-07-29T12:38:14;168795.56;;;31.46;50.22
1776;BME280;885;42.626;23.200;2022-07-29T12:40:42;167655.19;;;30.07;58.27
1776;BME280;885;42.626;23.200;2022-07-29T12:43:12;167722.69;;;30.32;55.37
1776;BME280;885;42.626;23.200;2022-07-29T12:45:42;167846.81;;;30.78;51.92
1776;BME280;885;42.626;23.200;2022-07-29T12:48:09;167837.41;;;30.75;52.16
1776;BME280;885;42.626;23.200;2022-07-29T12:50:52;166983.34;;;30.42;52.62
1776;BME280;885;42.626;23.200;2022-07-29T12:53:19;167377.25;;;30.46;52.88
1776;BME280;885;42.626;23.200;2022-07-29T12:55:47;166561.34;;;30.27;52.22
1776;BME280;885;42.626;23.200;2022-07-29T12:58:29;166095.53;;;29.96;52.23
1776;BME280;885;42.626;23.200;2022-07-29T13:01:04;165981.97;;;29.53;55.86
1776;BME280;885;42.626;23.200;2022-07-29T13:03:45;165062.78;;;28.95;56.78
1776;BME280;885;42.626;23.200;2022-07-29T13:06:33;165940.53;;;29.38;57.40
1776;BME280;885;42.626;23.200;2022-07-29T13:09:09;166010.03;;;29.64;55.41
1776;BME280;885;42.626;23.200;2022-07-29T13:11:39;165130.63;;;29.21;54.25
1776;BME280;885;42.626;23.200;2022-07-29T13:14:07;163844.28;;;28.67;53.93
1776;BME280;885;42.626;23.200;2022-07-29T13:16:37;164212.81;;;28.62;56.87
1776;BME280;885;42.626;23.200;2022-07-29T13:19:33;163837.69;;;28.65;54.46